sensor_id;sensor_type;location;lat;lon;timestamp;P1;durP1;ratioP1;P2;durP2;ratioP2
8036;SDS011;4061;51.360;7.340;2022-12-08T00:02:22;14.57;;;8.20;;
8036;SDS011;4061;51.360;7.340;2022-12-08T00:04:49;21.13;;;9.03;;
8036;SDS011;4061;51.360;7.340;2022-12-08T00:07:45;17.03;;;9.43;;
8036;SDS011;4061;51.360;7.340;2022-12-08T00:10:30;16.90;;;8.43;;
8036;SDS011;4061;51.360;7.340;2022-12-08T00:12:58;17.17;;;8.60;;
8036;SDS011;4061;51.360;7.340;2022-12-08T00:15:26;15.40;;;8.57;;
8036;SDS011;4061;51.360;7.340;2022-12-08T00:17:53;19.33;;;8.93;;
8036;SDS011;4061;51.360;7.340;2022-12-08T00:20:20;15.63;;;8.80;;
8036;SDS011;4061;51.360;7.340;2022-12-08T00:22:47;16.10;;;8.57;;
8036;SDS011;4061;51.360;7.340;2022-12-08T00:25:14;15.77;;;8.93;;
8036;SDS011;4061;51.360;7.340;2022-12-08T00:27:41;17.40;;;8.97;;
8036;SDS011;4061;51.360;7.340;2022-12-08T00:30:10;18.40;;;8.97;;
8036;SDS011;4061;51.360;7.340;2022-12-08T00:32:38;23.13;;;9.20;;
8036;SDS011;4061;51.360;7.340;2022-12-08T00:35:05;19.50;;;9.03;;
8036;SDS011;4061;51.360;7.340;2022-12-08T00:37:32;15.03;;;9.00;;
8036;SDS011;4061;51.360;7.340;2022-12-08T00:39:59;14.40;;;7.63;;
8036;SDS011;4061;51.360;7.340;2022-12-08T00:42:26;18.17;;;8.93;;
8036;SDS011;4061;51.360;7.340;2022-12-08T00:44:54;16.07;;;7.80;;
8036;SDS011;4061;51.360;7.340;2022-12-08T00:47:22;14.17;;;8.10;;
8036;SDS011;4061;51.360;7.340;2022-12-08T00:49:49;16.37;;;9.00;;
8036;SDS011;4061;51.360;7.340;2022-12-08T00:52:16;17.53;;;8.73;;
8036;SDS011;4061;51.360;7.340;2022-12-08T00:54:43;16.07;;;8.83;;
8036;SDS011;4061;51.360;7.340;2022-12-08T00:57:11;16.93;;;8.13;;
8036;SDS011;4061;51.360;7.340;2022-12-08T00:59:38;18.83;;;7.00;;
8036;SDS011;4061;51.360;7.340;2022-12-08T01:02:05;14.20;;;7.87;;
8036;SDS011;4061;51.360;7.340;2022-12-08T01:04:33;15.47;;;9.07;;
8036;SDS011;4061;51.360;7.340;2022-12-08T01:07:01;19.27;;;7.20;;
8036;SDS011;4061;51.360;7.340;2022-12-08T01:09:28;13.07;;;7.27;;
8036;SDS011;4061;51.360;7.340;2022-12-08T01:11:55;14.50;;;7.63;;
8036;SDS011;4061;51.360;7.340;2022-12-08T01:14:22;12.17;;;7.43;;
8036;SDS011;4061;51.360;7.340;2022-12-08T01:16:49;22.13;;;7.27;;
8036;SDS011;4061;51.360;7.340;2022-12-08T01:19:17;16.63;;;7.47;;
8036;SDS011;4061;51.360;7.340;2022-12-08T01:21:45;15.17;;;6.57;;
8036;SDS011;4061;51.360;7.340;2022-12-08T01:24:13;13.87;;;7.23;;
8036;SDS011;4061;51.360;7.340;2022-12-08T01:26:41;10.07;;;6.83;;
8036;SDS011;4061;51.360;7.340;2022-12-08T01:29:08;14.80;;;7.13;;
8036;SDS011;4061;51.360;7.340;2022-12-08T01:31:36;10.00;;;6.30;;
8036;SDS011;4061;51.360;7.340;2022-12-08T01:34:03;16.07;;;7.57;;
8036;SDS011;4061;51.360;7.340;2022-12-08T01:36:31;8.43;;;5.77;;
8036;SDS011;4061;51.360;7.340;2022-12-08T01:39:03;12.30;;;6.50;;
8036;SDS011;4061;51.360;7.340;2022-12-08T01:41:32;9.80;;;6.60;;
8036;SDS011;4061;51.360;7.340;2022-12-08T01:43:59;10.77;;;6.27;;
8036;SDS011;4061;51.360;7.340;2022-12-08T01:46:27;12.50;;;6.50;;
8036;SDS011;4061;51.360;7.340;2022-12-08T01:48:56;14.10;;;6.83;;
8036;SDS011;4061;51.360;7.340;2022-12-08T01:51:24;12.37;;;6.50;;
8036;SDS011;4061;51.360;7.340;2022-12-08T01:53:52;12.90;;;6.73;;
8036;SDS011;4061;51.360;7.340;2022-12-08T01:56:22;10.13;;;6.97;;
8036;SDS011;4061;51.360;7.340;2022-12-08T01:58:51;18.27;;;7.47;;
8036;SDS011;4061;51.360;7.340;2022-12-08T02:01:20;9.33;;;6.33;;
8036;SDS011;4061;51.360;7.340;2022-12-08T02:03:49;9.77;;;6.20;;
8036;SDS011;4061;51.360;7.340;2022-12-08T02:06:17;10.00;;;6.63;;
8036;SDS011;4061;51.360;7.340;2022-12-08T02:08:45;12.10;;;7.03;;
8036;SDS011;4061;51.360;7.340;2022-12-08T02:11:14;14.97;;;5.90;;
8036;SDS011;4061;51.360;7.340;2022-12-08T02:13:43;12.00;;;6.77;;
8036;SDS011;4061;51.360;7.340;2022-12-08T02:16:11;13.90;;;6.23;;
8036;SDS011;4061;51.360;7.340;2022-12-08T02:18:47;9.27;;;5.70;;
8036;SDS011;4061;51.360;7.340;2022-12-08T02:21:17;10.40;;;5.40;;
8036;SDS011;4061;51.360;7.340;2022-12-08T02:23:48;17.30;;;6.67;;
8036;SDS011;4061;51.360;7.340;2022-12-08T02:26:27;21.80;;;6.90;;
8036;SDS011;4061;51.360;7.340;2022-12-08T02:31:45;10.73;;;6.40;;
8036;SDS011;4061;51.360;7.340;2022-12-08T02:34:20;16.27;;;7.30;;
8036;SDS011;4061;51.360;7.340;2022-12-08T02:36:53;9.83;;;6.67;;
8036;SDS011;4061;51.360;7.340;2022-12-08T02:39:33;21.43;;;7.60;;
8036;SDS011;4061;51.360;7.340;2022-12-08T02:42:04;11.53;;;6.13;;
8036;SDS011;4061;51.360;7.340;2022-12-08T02:44:34;11.93;;;7.90;;
8036;SDS011;4061;51.360;7.340;2022-12-08T02:47:03;15.60;;;7.37;;
8036;SDS011;4061;51.360;7.340;2022-12-08T02:49:33;15.20;;;7.33;;
8036;SDS011;4061;51.360;7.340;2022-12-08T02:52:04;12.90;;;6.90;;
8036;SDS011;4061;51.360;7.340;2022-12-08T02:54:32;12.67;;;7.13;;
8036;SDS011;4061;51.360;7.340;2022-12-08T02:57:05;13.87;;;7.27;;
8036;SDS011;4061;51.360;7.340;2022-12-08T02:59:40;12.23;;;7.20;;
8036;SDS011;4061;51.360;7.340;2022-12-08T03:05:01;14.03;;;8.77;;
8036;SDS011;4061;51.360;7.340;2022-12-08T03:07:32;15.73;;;6.70;;
8036;SDS011;4061;51.360;7.340;2022-12-08T03:10:02;16.57;;;8.33;;
8036;SDS011;4061;51.360;7.340;2022-12-08T03:12:32;13.30;;;7.67;;
8036;SDS011;4061;51.360;7.340;2022-12-08T03:15:03;17.43;;;7.90;;
8036;SDS011;4061;51.360;7.340;2022-12-08T03:17:32;14.93;;;7.43;;
8036;SDS011;4061;51.360;7.340;2022-12-08T03:20:03;15.40;;;8.23;;
8036;SDS011;4061;51.360;7.340;2022-12-08T03:22:31;16.23;;;8.47;;
8036;SDS011;4061;51.360;7.340;2022-12-08T03:24:59;16.17;;;8.27;;
8036;SDS011;4061;51.360;7.340;2022-12-08T03:27:27;14.90;;;7.97;;
8036;SDS011;4061;51.360;7.340;2022-12-08T03:29:57;11.97;;;5.90;;
8036;SDS011;4061;51.360;7.340;2022-12-08T03:32:26;12.07;;;6.67;;
8036;SDS011;4061;51.360;7.340;2022-12-08T03:34:55;15.33;;;7.47;;
8036;SDS011;4061;51.360;7.340;2022-12-08T03:37:24;15.27;;;7.03;;
8036;SDS011;4061;51.360;7.340;2022-12-08T03:39:52;11.60;;;7.63;;
8036;SDS011;4061;51.360;7.340;2022-12-08T03:42:20;15.50;;;8.60;;
8036;SDS011;4061;51.360;7.340;2022-12-08T03:44:47;16.53;;;8.67;;
8036;SDS011;4061;51.360;7.340;2022-12-08T03:47:14;17.87;;;9.00;;
8036;SDS011;4061;51.360;7.340;2022-12-08T03:49:41;19.53;;;8.80;;
8036;SDS011;4061;51.360;7.340;2022-12-08T03:52:08;18.00;;;9.93;;
8036;SDS011;4061;51.360;7.340;2022-12-08T03:54:37;18.97;;;9.17;;
8036;SDS011;4061;51.360;7.340;2022-12-08T03:57:04;14.93;;;7.90;;
8036;SDS011;4061;51.360;7.340;2022-12-08T03:59:31;14.17;;;7.60;;
8036;SDS011;4061;51.360;7.340;2022-12-08T04:01:58;16.90;;;8.60;;
8036;SDS011;4061;51.360;7.340;2022-12-08T04:04:25;17.27;;;7.63;;
8036;SDS011;4061;51.360;7.340;2022-12-08T04:06:53;16.20;;;6.60;;
8036;SDS011;4061;51.360;7.340;2022-12-08T04:09:20;18.80;;;8.43;;
8036;SDS011;4061;51.360;7.340;2022-12-08T04:11:48;13.67;;;7.53;;
8036;SDS011;4061;51.360;7.340;2022-12-08T04:14:15;17.40;;;8.73;;
8036;SDS011;4061;51.360;7.340;2022-12-08T04:16:43;15.83;;;7.67;;
8036;SDS011;4061;51.360;7.340;2022-12-08T04:19:10;19.53;;;7.97;;
8036;SDS011;4061;51.360;7.340;2022-12-08T04:21:37;16.27;;;8.57;;
8036;SDS011;4061;51.360;7.340;2022-12-08T04:24:04;22.90;;;8.13;;
8036;SDS011;4061;51.360;7.340;2022-12-08T04:26:32;13.83;;;6.37;;
8036;SDS011;4061;51.360;7.340;2022-12-08T04:29:00;15.17;;;6.17;;
8036;SDS011;4061;51.360;7.340;2022-12-08T04:31:27;12.00;;;5.97;;
8036;SDS011;4061;51.360;7.340;2022-12-08T04:33:54;13.23;;;6.00;;
8036;SDS011;4061;51.360;7.340;2022-12-08T04:36:22;12.90;;;6.43;;
8036;SDS011;4061;51.360;7.340;2022-12-08T04:38:49;10.20;;;5.80;;
8036;SDS011;4061;51.360;7.340;2022-12-08T04:41:16;9.30;;;5.43;;
8036;SDS011;4061;51.360;7.340;2022-12-08T04:43:43;12.37;;;7.03;;
8036;SDS011;4061;51.360;7.340;2022-12-08T04:46:12;14.00;;;6.83;;
8036;SDS011;4061;51.360;7.340;2022-12-08T04:48:39;13.40;;;6.80;;
8036;SDS011;4061;51.360;7.340;2022-12-08T04:51:06;12.57;;;6.27;;
8036;SDS011;4061;51.360;7.340;2022-12-08T04:53:38;10.13;;;6.20;;
8036;SDS011;4061;51.360;7.340;2022-12-08T04:56:09;15.40;;;6.77;;
8036;SDS011;4061;51.360;7.340;2022-12-08T04:58:37;16.00;;;7.60;;
8036;SDS011;4061;51.360;7.340;2022-12-08T05:01:04;13.43;;;7.57;;
8036;SDS011;4061;51.360;7.340;2022-12-08T05:03:33;13.00;;;6.13;;
8036;SDS011;4061;51.360;7.340;2022-12-08T05:06:00;11.87;;;6.70;;
8036;SDS011;4061;51.360;7.340;2022-12-08T05:08:27;10.47;;;5.83;;
8036;SDS011;4061;51.360;7.340;2022-12-08T05:11:00;8.60;;;5.00;;
8036;SDS011;4061;51.360;7.340;2022-12-08T05:13:27;9.70;;;5.90;;
8036;SDS011;4061;51.360;7.340;2022-12-08T05:16:00;9.70;;;5.87;;
8036;SDS011;4061;51.360;7.340;2022-12-08T05:18:27;7.67;;;5.17;;
8036;SDS011;4061;51.360;7.340;2022-12-08T05:20:56;8.40;;;5.23;;
8036;SDS011;4061;51.360;7.340;2022-12-08T05:23:23;7.57;;;4.77;;
8036;SDS011;4061;51.360;7.340;2022-12-08T05:25:50;7.97;;;4.60;;
8036;SDS011;4061;51.360;7.340;2022-12-08T05:28:17;8.07;;;5.00;;
8036;SDS011;4061;51.360;7.340;2022-12-08T05:30:44;11.00;;;5.80;;
8036;SDS011;4061;51.360;7.340;2022-12-08T05:33:12;8.13;;;4.43;;
8036;SDS011;4061;51.360;7.340;2022-12-08T05:35:39;7.27;;;4.77;;
8036;SDS011;4061;51.360;7.340;2022-12-08T05:38:08;7.77;;;4.23;;
8036;SDS011;4061;51.360;7.340;2022-12-08T05:40:36;7.00;;;4.40;;
8036;SDS011;4061;51.360;7.340;2022-12-08T05:43:03;6.43;;;4.13;;
8036;SDS011;4061;51.360;7.340;2022-12-08T05:45:30;7.30;;;4.10;;
8036;SDS011;4061;51.360;7.340;2022-12-08T05:47:57;5.43;;;3.87;;
8036;SDS011;4061;51.360;7.340;2022-12-08T05:50:25;5.30;;;3.67;;
8036;SDS011;4061;51.360;7.340;2022-12-08T05:52:52;10.83;;;3.67;;
8036;SDS011;4061;51.360;7.340;2022-12-08T05:55:20;6.93;;;3.50;;
8036;SDS011;4061;51.360;7.340;2022-12-08T05:57:47;4.60;;;3.30;;
8036;SDS011;4061;51.360;7.340;2022-12-08T06:00:15;4.57;;;3.63;;
8036;SDS011;4061;51.360;7.340;2022-12-08T06:02:43;9.63;;;4.87;;
8036;SDS011;4061;51.360;7.340;2022-12-08T06:05:10;19.57;;;4.50;;
8036;SDS011;4061;51.360;7.340;2022-12-08T06:07:37;6.33;;;4.17;;
8036;SDS011;4061;51.360;7.340;2022-12-08T06:10:05;6.70;;;4.40;;
8036;SDS011;4061;51.360;7.340;2022-12-08T06:12:34;5.43;;;3.97;;
8036;SDS011;4061;51.360;7.340;2022-12-08T06:15:01;7.93;;;4.17;;
8036;SDS011;4061;51.360;7.340;2022-12-08T06:17:28;7.53;;;4.67;;
8036;SDS011;4061;51.360;7.340;2022-12-08T06:19:55;10.07;;;5.87;;
8036;SDS011;4061;51.360;7.340;2022-12-08T06:22:22;7.17;;;4.37;;
8036;SDS011;4061;51.360;7.340;2022-12-08T06:24:49;6.93;;;4.10;;
8036;SDS011;4061;51.360;7.340;2022-12-08T06:27:16;7.63;;;4.37;;
8036;SDS011;4061;51.360;7.340;2022-12-08T06:29:45;6.23;;;4.40;;
8036;SDS011;4061;51.360;7.340;2022-12-08T06:32:12;9.30;;;5.10;;
8036;SDS011;4061;51.360;7.340;2022-12-08T06:34:39;6.10;;;4.30;;
8036;SDS011;4061;51.360;7.340;2022-12-08T06:37:06;6.80;;;4.73;;
8036;SDS011;4061;51.360;7.340;2022-12-08T06:39:34;6.80;;;4.27;;
8036;SDS011;4061;51.360;7.340;2022-12-08T06:42:01;7.83;;;4.90;;
8036;SDS011;4061;51.360;7.340;2022-12-08T06:44:47;7.87;;;4.70;;
8036;SDS011;4061;51.360;7.340;2022-12-08T06:47:14;7.17;;;5.40;;
8036;SDS011;4061;51.360;7.340;2022-12-08T06:49:41;8.30;;;5.57;;
8036;SDS011;4061;51.360;7.340;2022-12-08T06:52:08;8.10;;;5.40;;
8036;SDS011;4061;51.360;7.340;2022-12-08T06:54:35;9.23;;;5.67;;
8036;SDS011;4061;51.360;7.340;2022-12-08T06:57:02;10.73;;;6.37;;
8036;SDS011;4061;51.360;7.340;2022-12-08T06:59:30;10.87;;;5.27;;
8036;SDS011;4061;51.360;7.340;2022-12-08T07:01:58;9.43;;;5.97;;
8036;SDS011;4061;51.360;7.340;2022-12-08T07:04:25;9.47;;;5.80;;
8036;SDS011;4061;51.360;7.340;2022-12-08T07:06:53;10.67;;;5.83;;
8036;SDS011;4061;51.360;7.340;2022-12-08T07:09:20;8.83;;;5.53;;
8036;SDS011;4061;51.360;7.340;2022-12-08T07:11:47;12.67;;;5.50;;
8036;SDS011;4061;51.360;7.340;2022-12-08T07:14:14;10.63;;;5.97;;
8036;SDS011;4061;51.360;7.340;2022-12-08T07:16:41;9.13;;;5.70;;
8036;SDS011;4061;51.360;7.340;2022-12-08T07:19:10;11.70;;;6.00;;
8036;SDS011;4061;51.360;7.340;2022-12-08T07:21:38;10.33;;;6.00;;
8036;SDS011;4061;51.360;7.340;2022-12-08T07:24:05;11.07;;;6.10;;
8036;SDS011;4061;51.360;7.340;2022-12-08T07:26:32;11.80;;;5.63;;
8036;SDS011;4061;51.360;7.340;2022-12-08T07:28:59;8.63;;;4.60;;
8036;SDS011;4061;51.360;7.340;2022-12-08T07:31:27;9.33;;;5.43;;
8036;SDS011;4061;51.360;7.340;2022-12-08T07:33:54;12.77;;;6.37;;
8036;SDS011;4061;51.360;7.340;2022-12-08T07:36:23;9.83;;;5.47;;
8036;SDS011;4061;51.360;7.340;2022-12-08T07:38:50;8.83;;;5.53;;
8036;SDS011;4061;51.360;7.340;2022-12-08T07:41:18;9.63;;;5.33;;
8036;SDS011;4061;51.360;7.340;2022-12-08T07:43:46;8.67;;;4.67;;
8036;SDS011;4061;51.360;7.340;2022-12-08T07:46:14;8.30;;;5.20;;
8036;SDS011;4061;51.360;7.340;2022-12-08T07:48:42;11.90;;;5.40;;
8036;SDS011;4061;51.360;7.340;2022-12-08T07:51:09;13.27;;;5.17;;
8036;SDS011;4061;51.360;7.340;2022-12-08T07:53:39;6.23;;;4.13;;
8036;SDS011;4061;51.360;7.340;2022-12-08T07:56:07;6.97;;;4.77;;
8036;SDS011;4061;51.360;7.340;2022-12-08T07:58:34;16.07;;;5.20;;
8036;SDS011;4061;51.360;7.340;2022-12-08T08:01:01;7.63;;;4.87;;
8036;SDS011;4061;51.360;7.340;2022-12-08T08:03:29;9.33;;;5.07;;
8036;SDS011;4061;51.360;7.340;2022-12-08T08:06:00;9.60;;;5.23;;
8036;SDS011;4061;51.360;7.340;2022-12-08T08:08:28;9.60;;;5.40;;
8036;SDS011;4061;51.360;7.340;2022-12-08T08:10:56;10.70;;;5.47;;
8036;SDS011;4061;51.360;7.340;2022-12-08T08:13:24;7.57;;;4.90;;
8036;SDS011;4061;51.360;7.340;2022-12-08T08:15:51;8.07;;;4.90;;
8036;SDS011;4061;51.360;7.340;2022-12-08T08:18:18;8.23;;;5.53;;
8036;SDS011;4061;51.360;7.340;2022-12-08T08:20:45;6.60;;;4.00;;
8036;SDS011;4061;51.360;7.340;2022-12-08T08:23:12;5.70;;;3.90;;
8036;SDS011;4061;51.360;7.340;2022-12-08T08:25:39;8.33;;;4.37;;
8036;SDS011;4061;51.360;7.340;2022-12-08T08:28:08;5.67;;;4.30;;
8036;SDS011;4061;51.360;7.340;2022-12-08T08:30:35;6.90;;;4.00;;
8036;SDS011;4061;51.360;7.340;2022-12-08T08:33:02;6.00;;;4.07;;
8036;SDS011;4061;51.360;7.340;2022-12-08T08:35:29;7.70;;;4.47;;
8036;SDS011;4061;51.360;7.340;2022-12-08T08:37:57;8.83;;;5.03;;
8036;SDS011;4061;51.360;7.340;2022-12-08T08:40:24;5.47;;;4.00;;
8036;SDS011;4061;51.360;7.340;2022-12-08T08:42:51;4.63;;;3.87;;
8036;SDS011;4061;51.360;7.340;2022-12-08T08:45:19;5.80;;;3.60;;
8036;SDS011;4061;51.360;7.340;2022-12-08T08:47:47;4.53;;;2.93;;
8036;SDS011;4061;51.360;7.340;2022-12-08T08:50:14;4.00;;;3.03;;
8036;SDS011;4061;51.360;7.340;2022-12-08T08:52:41;5.30;;;3.27;;
8036;SDS011;4061;51.360;7.340;2022-12-08T08:55:08;3.90;;;2.90;;
8036;SDS011;4061;51.360;7.340;2022-12-08T08:57:35;5.20;;;3.83;;
8036;SDS011;4061;51.360;7.340;2022-12-08T09:00:03;3.67;;;3.27;;
8036;SDS011;4061;51.360;7.340;2022-12-08T09:02:32;5.70;;;4.07;;
8036;SDS011;4061;51.360;7.340;2022-12-08T09:04:59;4.17;;;3.30;;
8036;SDS011;4061;51.360;7.340;2022-12-08T09:07:26;6.93;;;4.00;;
8036;SDS011;4061;51.360;7.340;2022-12-08T09:09:54;4.90;;;3.57;;
8036;SDS011;4061;51.360;7.340;2022-12-08T09:12:21;5.87;;;3.60;;
8036;SDS011;4061;51.360;7.340;2022-12-08T09:14:48;5.27;;;3.33;;
8036;SDS011;4061;51.360;7.340;2022-12-08T09:17:15;8.63;;;3.97;;
8036;SDS011;4061;51.360;7.340;2022-12-08T09:19:44;4.57;;;3.30;;
8036;SDS011;4061;51.360;7.340;2022-12-08T09:22:12;7.03;;;4.13;;
8036;SDS011;4061;51.360;7.340;2022-12-08T09:24:40;4.70;;;3.57;;
8036;SDS011;4061;51.360;7.340;2022-12-08T09:27:07;4.47;;;3.47;;
8036;SDS011;4061;51.360;7.340;2022-12-08T09:29:34;4.07;;;3.27;;
8036;SDS011;4061;51.360;7.340;2022-12-08T09:32:02;4.87;;;3.87;;
8036;SDS011;4061;51.360;7.340;2022-12-08T09:34:29;4.27;;;3.30;;
8036;SDS011;4061;51.360;7.340;2022-12-08T09:36:58;5.30;;;3.30;;
8036;SDS011;4061;51.360;7.340;2022-12-08T09:39:25;5.93;;;3.40;;
8036;SDS011;4061;51.360;7.340;2022-12-08T09:41:53;7.60;;;3.70;;
8036;SDS011;4061;51.360;7.340;2022-12-08T09:44:34;6.30;;;3.53;;
8036;SDS011;4061;51.360;7.340;2022-12-08T09:47:04;8.07;;;3.80;;
8036;SDS011;4061;51.360;7.340;2022-12-08T09:49:33;6.20;;;3.77;;
8036;SDS011;4061;51.360;7.340;2022-12-08T09:52:03;5.67;;;3.30;;
8036;SDS011;4061;51.360;7.340;2022-12-08T09:54:32;4.63;;;3.13;;
8036;SDS011;4061;51.360;7.340;2022-12-08T09:57:02;6.97;;;2.97;;
8036;SDS011;4061;51.360;7.340;2022-12-08T09:59:31;3.37;;;3.03;;
8036;SDS011;4061;51.360;7.340;2022-12-08T10:01:59;4.80;;;3.73;;
8036;SDS011;4061;51.360;7.340;2022-12-08T10:04:27;3.70;;;2.83;;
8036;SDS011;4061;51.360;7.340;2022-12-08T10:06:58;3.03;;;2.77;;
8036;SDS011;4061;51.360;7.340;2022-12-08T10:09:32;7.03;;;3.23;;
8036;SDS011;4061;51.360;7.340;2022-12-08T10:12:02;9.33;;;3.43;;
8036;SDS011;4061;51.360;7.340;2022-12-08T10:14:32;3.93;;;3.23;;
8036;SDS011;4061;51.360;7.340;2022-12-08T10:17:02;3.33;;;3.03;;
8036;SDS011;4061;51.360;7.340;2022-12-08T10:19:29;4.33;;;2.60;;
8036;SDS011;4061;51.360;7.340;2022-12-08T10:21:57;4.77;;;3.50;;
8036;SDS011;4061;51.360;7.340;2022-12-08T10:24:25;6.47;;;3.50;;
8036;SDS011;4061;51.360;7.340;2022-12-08T10:26:54;5.00;;;3.60;;
8036;SDS011;4061;51.360;7.340;2022-12-08T10:29:22;7.63;;;4.10;;
8036;SDS011;4061;51.360;7.340;2022-12-08T10:31:49;7.07;;;4.33;;
8036;SDS011;4061;51.360;7.340;2022-12-08T10:34:17;5.87;;;4.03;;
8036;SDS011;4061;51.360;7.340;2022-12-08T10:36:47;8.80;;;4.30;;
8036;SDS011;4061;51.360;7.340;2022-12-08T10:39:26;8.50;;;4.50;;
8036;SDS011;4061;51.360;7.340;2022-12-08T10:41:58;7.10;;;4.60;;
8036;SDS011;4061;51.360;7.340;2022-12-08T10:44:26;6.50;;;4.17;;
8036;SDS011;4061;51.360;7.340;2022-12-08T10:46:53;8.63;;;4.27;;
8036;SDS011;4061;51.360;7.340;2022-12-08T10:49:23;7.40;;;5.03;;
8036;SDS011;4061;51.360;7.340;2022-12-08T10:51:51;6.77;;;4.50;;
8036;SDS011;4061;51.360;7.340;2022-12-08T10:54:23;7.67;;;4.83;;
8036;SDS011;4061;51.360;7.340;2022-12-08T10:56:52;7.03;;;4.53;;
8036;SDS011;4061;51.360;7.340;2022-12-08T10:59:21;7.00;;;4.37;;
8036;SDS011;4061;51.360;7.340;2022-12-08T11:01:50;7.30;;;4.33;;
8036;SDS011;4061;51.360;7.340;2022-12-08T11:04:18;7.53;;;4.87;;
8036;SDS011;4061;51.360;7.340;2022-12-08T11:06:46;7.23;;;4.50;;
8036;SDS011;4061;51.360;7.340;2022-12-08T11:09:21;5.70;;;4.23;;
8036;SDS011;4061;51.360;7.340;2022-12-08T11:11:49;6.07;;;4.70;;
8036;SDS011;4061;51.360;7.340;2022-12-08T11:14:17;8.60;;;4.90;;
8036;SDS011;4061;51.360;7.340;2022-12-08T11:16:46;7.60;;;5.30;;
8036;SDS011;4061;51.360;7.340;2022-12-08T11:19:15;7.93;;;5.03;;
8036;SDS011;4061;51.360;7.340;2022-12-08T11:21:43;6.40;;;3.97;;
8036;SDS011;4061;51.360;7.340;2022-12-08T11:24:22;9.27;;;4.87;;
8036;SDS011;4061;51.360;7.340;2022-12-08T11:26:51;6.80;;;4.90;;
8036;SDS011;4061;51.360;7.340;2022-12-08T11:29:18;8.73;;;5.20;;
8036;SDS011;4061;51.360;7.340;2022-12-08T11:31:47;7.83;;;4.53;;
8036;SDS011;4061;51.360;7.340;2022-12-08T11:34:16;4.50;;;4.07;;
8036;SDS011;4061;51.360;7.340;2022-12-08T11:36:45;6.13;;;4.07;;
8036;SDS011;4061;51.360;7.340;2022-12-08T11:39:13;10.23;;;5.63;;
8036;SDS011;4061;51.360;7.340;2022-12-08T11:41:41;8.60;;;4.70;;
8036;SDS011;4061;51.360;7.340;2022-12-08T11:44:12;7.77;;;4.53;;
8036;SDS011;4061;51.360;7.340;2022-12-08T11:46:47;5.67;;;4.03;;
8036;SDS011;4061;51.360;7.340;2022-12-08T11:49:18;6.47;;;4.57;;
8036;SDS011;4061;51.360;7.340;2022-12-08T11:51:47;9.03;;;5.20;;
8036;SDS011;4061;51.360;7.340;2022-12-08T11:54:17;11.83;;;5.60;;
8036;SDS011;4061;51.360;7.340;2022-12-08T11:56:47;11.13;;;5.43;;
8036;SDS011;4061;51.360;7.340;2022-12-08T11:59:20;9.73;;;4.60;;
8036;SDS011;4061;51.360;7.340;2022-12-08T12:01:48;10.77;;;5.07;;
8036;SDS011;4061;51.360;7.340;2022-12-08T12:04:19;10.00;;;5.83;;
8036;SDS011;4061;51.360;7.340;2022-12-08T12:09:40;10.90;;;5.17;;
8036;SDS011;4061;51.360;7.340;2022-12-08T12:12:11;9.43;;;5.30;;
8036;SDS011;4061;51.360;7.340;2022-12-08T12:17:25;10.23;;;5.37;;
8036;SDS011;4061;51.360;7.340;2022-12-08T12:19:55;9.23;;;5.73;;
8036;SDS011;4061;51.360;7.340;2022-12-08T12:22:24;7.77;;;5.10;;
8036;SDS011;4061;51.360;7.340;2022-12-08T12:24:55;7.70;;;5.10;;
8036;SDS011;4061;51.360;7.340;2022-12-08T12:27:24;7.60;;;5.30;;
8036;SDS011;4061;51.360;7.340;2022-12-08T12:29:53;7.77;;;4.63;;
8036;SDS011;4061;51.360;7.340;2022-12-08T12:32:23;8.97;;;4.50;;
8036;SDS011;4061;51.360;7.340;2022-12-08T12:34:51;7.80;;;4.97;;
8036;SDS011;4061;51.360;7.340;2022-12-08T12:37:20;8.90;;;4.90;;
8036;SDS011;4061;51.360;7.340;2022-12-08T12:39:52;12.27;;;4.90;;
8036;SDS011;4061;51.360;7.340;2022-12-08T12:42:36;8.57;;;5.63;;
8036;SDS011;4061;51.360;7.340;2022-12-08T12:45:10;6.73;;;4.60;;
8036;SDS011;4061;51.360;7.340;2022-12-08T12:47:44;7.20;;;4.83;;
8036;SDS011;4061;51.360;7.340;2022-12-08T12:50:41;10.43;;;5.03;;
8036;SDS011;4061;51.360;7.340;2022-12-08T12:53:03;5.67;;;4.40;;
8036;SDS011;4061;51.360;7.340;2022-12-08T12:58:20;8.50;;;4.43;;
8036;SDS011;4061;51.360;7.340;2022-12-08T13:00:48;7.67;;;4.70;;
8036;SDS011;4061;51.360;7.340;2022-12-08T13:03:15;12.83;;;5.73;;
8036;SDS011;4061;51.360;7.340;2022-12-08T13:05:46;10.53;;;4.20;;
8036;SDS011;4061;51.360;7.340;2022-12-08T13:08:18;5.50;;;4.47;;
8036;SDS011;4061;51.360;7.340;2022-12-08T13:10:48;8.93;;;4.63;;
8036;SDS011;4061;51.360;7.340;2022-12-08T13:13:22;10.83;;;5.73;;
8036;SDS011;4061;51.360;7.340;2022-12-08T13:15:50;8.10;;;5.03;;
8036;SDS011;4061;51.360;7.340;2022-12-08T13:18:18;7.83;;;5.07;;
8036;SDS011;4061;51.360;7.340;2022-12-08T13:20:46;10.40;;;5.13;;
8036;SDS011;4061;51.360;7.340;2022-12-08T13:23:26;6.43;;;4.50;;
8036;SDS011;4061;51.360;7.340;2022-12-08T13:31:34;7.27;;;4.03;;
8036;SDS011;4061;51.360;7.340;2022-12-08T13:34:03;5.23;;;4.17;;
8036;SDS011;4061;51.360;7.340;2022-12-08T13:36:31;5.03;;;4.37;;
8036;SDS011;4061;51.360;7.340;2022-12-08T13:39:00;6.57;;;3.80;;
8036;SDS011;4061;51.360;7.340;2022-12-08T13:41:31;6.83;;;4.23;;
8036;SDS011;4061;51.360;7.340;2022-12-08T13:44:01;9.47;;;4.27;;
8036;SDS011;4061;51.360;7.340;2022-12-08T13:46:32;7.60;;;4.63;;
8036;SDS011;4061;51.360;7.340;2022-12-08T13:49:00;7.67;;;3.70;;
8036;SDS011;4061;51.360;7.340;2022-12-08T13:51:31;6.63;;;3.90;;
8036;SDS011;4061;51.360;7.340;2022-12-08T13:54:03;8.03;;;4.00;;
8036;SDS011;4061;51.360;7.340;2022-12-08T13:56:33;7.23;;;3.47;;
8036;SDS011;4061;51.360;7.340;2022-12-08T13:59:08;5.53;;;3.90;;
8036;SDS011;4061;51.360;7.340;2022-12-08T14:01:39;3.87;;;3.47;;
8036;SDS011;4061;51.360;7.340;2022-12-08T14:04:11;6.93;;;3.73;;
8036;SDS011;4061;51.360;7.340;2022-12-08T14:06:41;4.53;;;3.63;;
8036;SDS011;4061;51.360;7.340;2022-12-08T14:09:11;3.87;;;3.47;;
8036;SDS011;4061;51.360;7.340;2022-12-08T14:11:40;6.17;;;3.80;;
8036;SDS011;4061;51.360;7.340;2022-12-08T14:14:11;6.37;;;3.40;;
8036;SDS011;4061;51.360;7.340;2022-12-08T14:16:41;4.77;;;3.83;;
8036;SDS011;4061;51.360;7.340;2022-12-08T14:19:14;6.40;;;4.03;;
8036;SDS011;4061;51.360;7.340;2022-12-08T14:21:44;8.00;;;4.30;;
8036;SDS011;4061;51.360;7.340;2022-12-08T14:24:13;5.87;;;3.90;;
8036;SDS011;4061;51.360;7.340;2022-12-08T14:26:40;7.17;;;4.37;;
8036;SDS011;4061;51.360;7.340;2022-12-08T14:29:08;9.73;;;5.00;;
8036;SDS011;4061;51.360;7.340;2022-12-08T14:31:35;5.73;;;3.60;;
8036;SDS011;4061;51.360;7.340;2022-12-08T14:34:02;6.50;;;4.53;;
8036;SDS011;4061;51.360;7.340;2022-12-08T14:36:30;4.90;;;3.83;;
8036;SDS011;4061;51.360;7.340;2022-12-08T14:38:57;6.00;;;4.40;;
8036;SDS011;4061;51.360;7.340;2022-12-08T14:41:27;5.97;;;4.57;;
8036;SDS011;4061;51.360;7.340;2022-12-08T14:43:58;7.13;;;5.03;;
8036;SDS011;4061;51.360;7.340;2022-12-08T14:46:26;7.50;;;4.87;;
8036;SDS011;4061;51.360;7.340;2022-12-08T14:48:53;6.07;;;4.63;;
8036;SDS011;4061;51.360;7.340;2022-12-08T14:51:23;7.07;;;4.80;;
8036;SDS011;4061;51.360;7.340;2022-12-08T14:53:53;6.93;;;4.87;;
8036;SDS011;4061;51.360;7.340;2022-12-08T14:56:23;10.80;;;5.53;;
8036;SDS011;4061;51.360;7.340;2022-12-08T14:59:02;5.90;;;4.97;;
8036;SDS011;4061;51.360;7.340;2022-12-08T15:01:30;7.60;;;5.43;;
8036;SDS011;4061;51.360;7.340;2022-12-08T15:04:02;7.17;;;5.23;;
8036;SDS011;4061;51.360;7.340;2022-12-08T15:06:33;10.03;;;5.03;;
8036;SDS011;4061;51.360;7.340;2022-12-08T15:09:12;5.93;;;4.40;;
8036;SDS011;4061;51.360;7.340;2022-12-08T15:11:40;6.07;;;3.83;;
8036;SDS011;4061;51.360;7.340;2022-12-08T15:16:51;10.77;;;5.93;;
8036;SDS011;4061;51.360;7.340;2022-12-08T15:19:21;11.03;;;5.63;;
8036;SDS011;4061;51.360;7.340;2022-12-08T15:21:51;8.00;;;5.40;;
8036;SDS011;4061;51.360;7.340;2022-12-08T15:24:19;9.10;;;5.70;;
8036;SDS011;4061;51.360;7.340;2022-12-08T15:26:48;9.17;;;5.70;;
8036;SDS011;4061;51.360;7.340;2022-12-08T15:29:18;10.37;;;5.57;;
8036;SDS011;4061;51.360;7.340;2022-12-08T15:31:46;12.03;;;6.00;;
8036;SDS011;4061;51.360;7.340;2022-12-08T15:34:14;9.10;;;6.10;;
8036;SDS011;4061;51.360;7.340;2022-12-08T15:36:42;6.93;;;4.77;;
8036;SDS011;4061;51.360;7.340;2022-12-08T15:39:15;7.10;;;5.03;;
8036;SDS011;4061;51.360;7.340;2022-12-08T15:41:45;11.77;;;5.77;;
8036;SDS011;4061;51.360;7.340;2022-12-08T15:44:12;13.17;;;6.43;;